馬公航空站 - ATIS

METAR RCQC 040100Z 03017KT 9999 BKN008 BKN016 20/17 Q1019 NOSIG RMK A3010=

站台狀態:Offline
最後更新:2020-04-04 09:00:02